TimePDT,TemperatureF,Dew PointF,Humidity,Sea Level PressureIn,VisibilityMPH,Wind Direction,Wind SpeedMPH,Gust SpeedMPH,PrecipitationIn,Events,Conditions,WindDirDegrees,DateUTC
12:55 AM,44.1,35.1,71,29.94,10.0,West,16.1,-,0.00,Rain,Light Rain,270,2013-04-13 07:55:00
1:20 AM,39.2,35.6,87,29.96,7.0,WNW,15.0,26.5,0.00,Rain,Light Rain,300,2013-04-13 08:20:00
1:32 AM,41.0,37.4,87,29.95,10.0,WNW,11.5,-,0.00,Rain,Light Rain,290,2013-04-13 08:32:00
1:55 AM,42.1,36.0,79,29.95,9.0,West,12.7,25.3,0.00,Rain,Light Rain,270,2013-04-13 08:55:00
2:55 AM,43.0,34.0,71,29.96,10.0,West,18.4,26.5,0.01,,Overcast,280,2013-04-13 09:55:00
3:55 AM,41.0,34.0,76,29.98,9.0,West,13.8,20.7,0.00,Rain,Light Rain,260,2013-04-13 10:55:00
4:55 AM,42.1,32.0,67,29.99,10.0,WNW,9.2,-,0.00,,Mostly Cloudy,290,2013-04-13 11:55:00
5:55 AM,43.0,32.0,65,29.99,10.0,West,8.1,-,0.00,Rain,Light Rain,270,2013-04-13 12:55:00
6:55 AM,44.1,32.0,63,30.00,10.0,West,10.4,21.9,0.00,,Overcast,260,2013-04-13 13:55:00
7:55 AM,44.1,30.9,60,30.01,10.0,West,12.7,20.7,N/A,,Mostly Cloudy,260,2013-04-13 14:55:00
8:55 AM,45.0,30.9,58,30.02,10.0,West,12.7,-,N/A,,Overcast,260,2013-04-13 15:55:00
9:55 AM,42.1,37.0,82,30.04,6.0,WNW,18.4,26.5,0.00,Rain,Light Rain,290,2013-04-13 16:55:00
10:52 AM,39.2,35.6,87,30.04,1.8,West,12.7,23.0,0.03,Rain,Heavy Rain,260,2013-04-13 17:52:00
10:55 AM,39.9,36.0,86,30.04,1.5,WNW,9.2,-,0.05,Rain,Rain,290,2013-04-13 17:55:00
11:03 AM,42.8,37.4,81,30.03,3.0,SW,5.8,-,0.03,Rain,Light Rain,230,2013-04-13 18:03:00
11:21 AM,42.8,37.4,81,30.04,2.5,West,8.1,20.7,0.08,Rain,Light Rain,260,2013-04-13 18:21:00
11:29 AM,46.4,41.0,81,30.03,10.0,West,9.2,-,0.08,,Overcast,260,2013-04-13 18:29:00
11:37 AM,46.4,39.2,76,30.04,10.0,WSW,16.1,20.7,0.09,,Overcast,250,2013-04-13 18:37:00
11:55 AM,46.0,39.9,79,30.04,8.0,WSW,16.1,28.8,0.09,Rain,Light Rain,250,2013-04-13 18:55:00
12:55 PM,48.0,39.9,74,30.04,10.0,WSW,15.0,-,0.00,,Mostly Cloudy,250,2013-04-13 19:55:00
1:18 PM,48.2,41.0,76,30.04,10.0,West,20.7,26.5,N/A,,Mostly Cloudy,260,2013-04-13 20:18:00
1:37 PM,48.2,39.2,71,30.04,10.0,WSW,17.3,24.2,N/A,,Mostly Cloudy,250,2013-04-13 20:37:00
1:53 PM,44.6,39.2,81,30.05,2.5,WSW,16.1,31.1,0.05,Rain,Light Rain,250,2013-04-13 20:53:00
1:55 PM,45.0,41.0,86,30.04,3.0,WSW,13.8,25.3,0.05,Rain,Light Rain,250,2013-04-13 20:55:00
2:55 PM,50.0,41.0,71,30.05,10.0,West,17.3,25.3,0.00,,Overcast,260,2013-04-13 21:55:00
3:26 PM,50.0,41.0,71,30.05,10.0,West,18.4,25.3,0.00,,Overcast,260,2013-04-13 22:26:00
3:44 PM,48.2,39.2,71,30.05,9.0,West,17.3,31.1,0.00,,Mostly Cloudy,280,2013-04-13 22:44:00
3:55 PM,48.9,39.9,71,30.05,10.0,West,18.4,26.5,0.00,Rain,Light Rain,270,2013-04-13 22:55:00
4:55 PM,48.9,39.9,71,30.05,10.0,West,20.7,27.6,0.00,,Mostly Cloudy,280,2013-04-13 23:55:00
5:55 PM,48.9,39.9,71,30.05,10.0,West,20.7,26.5,0.00,Rain,Light Rain,260,2013-04-14 00:55:00
6:55 PM,46.9,39.0,74,30.05,10.0,West,16.1,-,0.00,,Scattered Clouds,270,2013-04-14 01:55:00
7:55 PM,46.0,39.0,76,30.05,8.0,West,17.3,23.0,0.00,Rain,Light Rain,270,2013-04-14 02:55:00
8:44 PM,46.4,39.2,76,30.06,10.0,WNW,12.7,18.4,0.00,,Overcast,290,2013-04-14 03:44:00
8:55 PM,44.1,39.0,82,30.06,5.0,WNW,15.0,26.5,0.01,Rain,Light Rain,300,2013-04-14 03:55:00
9:55 PM,44.1,41.0,89,30.07,10.0,West,4.6,-,0.13,,Overcast,260,2013-04-14 04:55:00
10:28 PM,44.6,39.2,81,30.07,10.0,WNW,17.3,26.5,N/A,,Overcast,290,2013-04-14 05:28:00
10:55 PM,43.0,39.0,86,30.06,10.0,WSW,4.6,-,0.02,Rain,Light Rain,250,2013-04-14 05:55:00
11:46 PM,44.6,39.2,81,30.07,10.0,Calm,Calm,-,0.01,,Overcast,0,2013-04-14 06:46:00
11:55 PM,43.0,41.0,93,30.06,10.0,SW,3.5,-,0.01,,Overcast,220,2013-04-14 06:55:00